Time;durP1;ratioP1;P1;durP2;ratioP2;P2;SDS_P1;SDS_P2;PMS_P1;PMS_P2;Temp;Humidity;BMP_temperature;BMP_pressure;BME280_temperature;BME280_humidity;BME280_pressure;Samples;Min_cycle;Max_cycle;Signal;HPM_P1;HPM_P2
2023/12/05 00:01:22;;;;;;;6.05;2.25;;;;;;;-2.88;74.06;100610.31;15778290;28;20160;-52
2023/12/05 00:08:55;;;;;;;0.10;0.10;;;;;;;-2.77;73.76;100612.88;15861558;28;20143;-52
2023/12/05 00:16:30;;;;;;;11.13;1.77;;;;;;;-3.05;74.75;100616.09;15852613;28;20390;-51
2023/12/05 00:24:07;;;;;;;2.15;1.95;;;;;;;-2.89;74.90;100609.47;15870976;28;20097;-49
2023/12/05 00:31:41;;;;;;;0.00;0.00;;;;;;;-2.73;74.42;100605.56;15863108;28;20040;-51
2023/12/05 00:39:15;;;;;;;0.82;0.82;;;;;;;-2.92;74.39;100595.75;15852486;28;20050;-54
2023/12/05 00:46:50;;;;;;;0.32;0.20;;;;;;;-2.67;74.02;100612.94;15870129;28;20070;-47
2023/12/05 00:54:23;;;;;;;0.08;0.08;;;;;;;-2.79;74.76;100606.09;15869088;28;20070;-50
2023/12/05 01:02:01;;;;;;;0.10;0.10;;;;;;;-2.64;74.31;100599.56;15869368;28;20493;-50
2023/12/05 01:09:35;;;;;;;4.50;3.83;;;;;;;-2.82;74.69;100601.91;15850020;28;20123;-50
2023/12/05 01:17:12;;;;;;;0.32;0.32;;;;;;;-2.91;74.60;100605.31;15863002;28;20134;-51
2023/12/05 01:24:53;;;;;;;0.60;0.60;;;;;;;-2.55;74.42;100584.81;15864043;28;20131;-49
2023/12/05 01:32:27;;;;;;;15.02;1.40;;;;;;;-2.59;73.88;100579.81;15865404;28;20065;-49
2023/12/05 01:40:01;;;;;;;1.73;1.63;;;;;;;-2.64;73.99;100568.84;15867026;28;20039;-52
2023/12/05 01:47:40;;;;;;;0.00;0.00;;;;;;;-2.65;74.35;100572.44;15830149;28;20048;-49
2023/12/05 01:55:14;;;;;;;0.30;0.30;;;;;;;-2.53;74.31;100556.59;15803103;28;20054;-52
2023/12/05 02:02:50;;;;;;;0.10;0.10;;;;;;;-2.54;74.47;100550.50;15803526;28;20427;-47
2023/12/05 02:10:24;;;;;;;0.00;0.00;;;;;;;-2.60;74.67;100535.28;15800803;28;20044;-49
2023/12/05 02:18:06;;;;;;;0.45;0.45;;;;;;;-2.51;74.86;100547.63;15800335;28;20055;-49
2023/12/05 02:25:54;;;;;;;0.52;0.52;;;;;;;-2.33;73.80;100526.84;15792067;28;20113;-50
2023/12/05 02:33:29;;;;;;;2.22;0.90;;;;;;;-2.29;73.75;100536.09;15802341;28;20048;-49
2023/12/05 02:41:08;;;;;;;0.10;0.10;;;;;;;-2.48;74.29;100531.59;15801802;28;20048;-48
2023/12/05 02:48:44;;;;;;;3.58;1.35;;;;;;;-2.50;74.61;100522.19;15821971;28;20048;-49
2023/12/05 02:56:19;;;;;;;0.47;0.47;;;;;;;-2.50;74.59;100515.13;15847244;28;20494;-48
2023/12/05 03:03:56;;;;;;;0.00;0.00;;;;;;;-2.29;74.38;100511.59;15846330;28;20569;-49
2023/12/05 03:11:29;;;;;;;0.00;0.00;;;;;;;-2.32;74.18;100510.09;15862315;28;20393;-47
2023/12/05 03:19:05;;;;;;;0.20;0.20;;;;;;;-2.22;73.90;100502.25;15845909;28;20141;-49
2023/12/05 03:26:39;;;;;;;0.20;0.20;;;;;;;-2.48;74.74;100500.06;15865567;28;20122;-48
2023/12/05 03:34:13;;;;;;;1.95;0.80;;;;;;;-2.28;74.86;100506.25;15865190;28;20135;-54
2023/12/05 03:41:50;;;;;;;0.00;0.00;;;;;;;-2.14;74.35;100511.13;15863709;28;20553;-49
2023/12/05 03:49:26;;;;;;;0.00;0.00;;;;;;;-2.39;75.05;100509.78;15874284;28;20448;-53
2023/12/05 03:57:00;;;;;;;2.08;1.77;;;;;;;-2.14;74.27;100526.06;15858075;28;20100;-52
2023/12/05 04:04:36;;;;;;;0.30;0.30;;;;;;;-2.22;74.43;100510.13;15856305;28;20079;-51
2023/12/05 04:12:11;;;;;;;0.00;0.00;;;;;;;-2.37;74.62;100504.41;15875129;28;20461;-51
2023/12/05 04:19:48;;;;;;;0.70;0.70;;;;;;;-2.48;75.35;100497.41;15874468;28;20363;-49
2023/12/05 04:27:21;;;;;;;0.57;0.57;;;;;;;-2.20;74.63;100501.13;15855884;28;20049;-48
2023/12/05 04:34:56;;;;;;;0.20;0.17;;;;;;;-2.45;74.62;100470.88;15874674;28;20082;-48
2023/12/05 04:42:41;;;;;;;0.05;0.05;;;;;;;-2.29;74.93;100491.41;15854676;28;20123;-50
2023/12/05 04:50:16;;;;;;;0.00;0.00;;;;;;;-2.33;75.52;100490.88;15870742;28;20115;-49
2023/12/05 04:57:50;;;;;;;0.10;0.10;;;;;;;-2.10;74.55;100486.22;15853608;28;20367;-47
2023/12/05 05:05:26;;;;;;;3.30;1.85;;;;;;;-2.01;74.31;100496.88;15869152;28;20042;-50
2023/12/05 05:13:00;;;;;;;0.80;0.80;;;;;;;-2.15;75.26;100483.16;15869817;28;20035;-47
2023/12/05 05:20:35;;;;;;;4.90;2.05;;;;;;;-1.98;74.19;100486.94;15837212;28;20092;-50
2023/12/05 05:28:09;;;;;;;3.20;1.30;;;;;;;-2.15;74.74;100488.41;15851141;28;20032;-51
2023/12/05 05:35:44;;;;;;;0.75;0.75;;;;;;;-2.14;75.25;100494.53;15849563;28;20469;-49
2023/12/05 05:43:18;;;;;;;0.45;0.45;;;;;;;-1.82;73.82;100492.50;15871443;28;20039;-48
2023/12/05 05:50:53;;;;;;;1.67;1.48;;;;;;;-1.94;74.93;100484.88;15803692;22;20053;-54
2023/12/05 05:58:30;;;;;;;1.02;1.00;;;;;;;-2.07;74.91;100491.19;15747536;28;20576;-53
2023/12/05 06:06:05;;;;;;;0.40;0.40;;;;;;;-1.89;74.66;100477.41;15747408;28;20044;-50
2023/12/05 06:13:42;;;;;;;0.00;0.00;;;;;;;-1.83;74.76;100496.09;15739579;28;20494;-57
2023/12/05 06:21:18;;;;;;;0.57;0.57;;;;;;;-1.86;74.89;100491.13;15741065;28;20044;-54
2023/12/05 06:28:51;;;;;;;0.25;0.25;;;;;;;-1.91;74.86;100488.06;15722133;28;20490;-54
2023/12/05 06:36:26;;;;;;;0.10;0.10;;;;;;;-1.96;74.95;100486.78;15740368;28;20045;-56
2023/12/05 06:44:02;;;;;;;0.52;0.52;;;;;;;-1.92;74.66;100493.44;15739670;28;20045;-54
2023/12/05 06:51:37;;;;;;;0.40;0.40;;;;;;;-2.03;75.26;100486.50;15738607;28;20123;-52
2023/12/05 06:59:12;;;;;;;4.20;2.30;;;;;;;-2.01;75.17;100491.63;15738251;28;20131;-54
2023/12/05 07:06:46;;;;;;;0.77;0.55;;;;;;;-1.97;75.36;100488.59;15738450;28;20040;-53
2023/12/05 07:14:22;;;;;;;0.60;0.60;;;;;;;-1.74;74.36;100489.19;15721062;28;20078;-54
2023/12/05 07:22:01;;;;;;;0.20;0.20;;;;;;;-1.77;74.59;100486.84;15716638;28;20044;-53
2023/12/05 07:29:34;;;;;;;0.15;0.15;;;;;;;-1.66;73.85;100496.41;15719260;28;20051;-55
2023/12/05 07:37:11;;;;;;;0.05;0.05;;;;;;;-1.85;74.53;100499.84;15735504;28;20037;-55
2023/12/05 07:44:45;;;;;;;1.30;1.20;;;;;;;-1.70;74.04;100498.47;15728213;28;20122;-53
2023/12/05 07:52:22;;;;;;;0.28;0.28;;;;;;;-1.98;75.10;100501.88;15718810;28;20049;-54
2023/12/05 07:59:59;;;;;;;1.33;0.80;;;;;;;-1.66;73.95;100505.13;15737256;28;20514;-52
2023/12/05 08:07:37;;;;;;;2.17;1.95;;;;;;;-1.65;73.82;100504.16;15719465;28;20040;-54
2023/12/05 08:15:10;;;;;;;0.35;0.35;;;;;;;-1.64;73.98;100507.59;15736336;28;20132;-56
2023/12/05 08:22:45;;;;;;;0.73;0.73;;;;;;;-1.39;73.31;100506.25;15735640;28;20040;-53
2023/12/05 08:30:20;;;;;;;0.25;0.25;;;;;;;-1.39;73.05;100517.59;15738684;28;20132;-51
2023/12/05 08:37:55;;;;;;;0.47;0.47;;;;;;;-1.41;73.52;100502.91;15739675;28;20041;-52
2023/12/05 08:45:31;;;;;;;3.45;1.30;;;;;;;-1.29;73.69;100517.59;15750126;28;20053;-53
2023/12/05 08:53:05;;;;;;;2.58;2.38;;;;;;;-1.50;73.50;100495.84;15748732;28;20043;-56
2023/12/05 09:00:44;;;;;;;1.17;1.08;;;;;;;-1.27;73.62;100512.19;15740159;28;20041;-55
2023/12/05 09:08:22;;;;;;;1.80;0.75;;;;;;;-1.30;73.45;100519.41;15737635;28;20076;-53
2023/12/05 09:15:56;;;;;;;0.80;0.80;;;;;;;-1.18;73.38;100517.44;15704507;28;20045;-49
2023/12/05 09:23:30;;;;;;;0.10;0.10;;;;;;;-1.09;73.30;100523.69;15743436;28;20486;-51
2023/12/05 09:31:07;;;;;;;0.82;0.77;;;;;;;-1.04;73.09;100517.00;15748247;28;20446;-51
2023/12/05 09:38:44;;;;;;;1.88;1.42;;;;;;;-1.36;74.12;100506.78;15721441;28;20246;-50
2023/12/05 09:46:21;;;;;;;0.00;0.00;;;;;;;-1.21;73.65;100503.72;15750032;28;20053;-52
2023/12/05 09:53:56;;;;;;;0.10;0.10;;;;;;;-1.12;73.49;100502.88;15744728;28;20307;-51
2023/12/05 10:01:32;;;;;;;0.10;0.10;;;;;;;-1.03;73.74;100488.88;15725202;28;20044;-50
2023/12/05 10:09:09;;;;;;;1.00;0.75;;;;;;;-0.90;73.46;100499.09;15741649;28;20125;-49
2023/12/05 10:16:45;;;;;;;0.00;0.00;;;;;;;-0.72;73.01;100486.84;15715473;28;20139;-51
2023/12/05 10:24:22;;;;;;;0.20;0.20;;;;;;;-0.62;72.79;100479.75;15740503;28;20489;-48
2023/12/05 10:31:56;;;;;;;0.25;0.25;;;;;;;-0.39;71.19;100480.22;15724156;28;20053;-51
2023/12/05 10:39:37;;;;;;;0.08;0.08;;;;;;;-0.43;71.43;100473.56;15740219;28;20048;-51
2023/12/05 10:47:12;;;;;;;4.25;2.80;;;;;;;-0.36;72.16;100461.47;15737593;28;20156;-51
2023/12/05 10:54:55;;;;;;;0.75;0.43;;;;;;;-0.23;72.06;100455.84;15717277;28;20060;-55
2023/12/05 11:02:29;;;;;;;1.02;0.60;;;;;;;-0.25;72.43;100455.16;15701079;28;20110;-50
2023/12/05 11:10:06;;;;;;;1.48;0.65;;;;;;;-0.51;73.20;100455.03;15737056;28;20106;-52
2023/12/05 11:17:49;;;;;;;1.63;1.40;;;;;;;-0.38;72.86;100449.41;15717679;28;20076;-50
2023/12/05 11:25:36;;;;;;;0.10;0.10;;;;;;;-0.30;73.62;100433.69;15738091;28;20044;-51
2023/12/05 11:33:17;;;;;;;0.20;0.20;;;;;;;-0.26;73.46;100435.03;15743140;28;20192;-49
2023/12/05 11:41:17;;;;;;;0.28;0.28;;;;;;;-0.27;73.24;100433.38;15732139;28;20052;-47
2023/12/05 11:48:50;;;;;;;0.20;0.20;;;;;;;-0.30;73.64;100433.69;15733629;28;20051;-55
2023/12/05 11:56:28;;;;;;;0.73;0.65;;;;;;;-0.22;74.54;100432.94;15738734;28;20045;-53
2023/12/05 12:04:19;;;;;;;0.05;0.05;;;;;;;-0.32;74.99;100444.38;15722144;28;20032;-52
2023/12/05 12:11:58;;;;;;;0.40;0.40;;;;;;;-0.43;75.54;100435.81;15752307;28;20131;-52
2023/12/05 12:19:37;;;;;;;0.73;0.73;;;;;;;-0.48;76.32;100436.25;15751188;28;20140;-53
2023/12/05 12:27:12;;;;;;;0.00;0.00;;;;;;;-0.24;76.48;100438.34;15753299;28;20040;-52
2023/12/05 12:34:49;;;;;;;0.10;0.10;;;;;;;-0.24;75.38;100432.25;15745654;28;20086;-54
2023/12/05 12:42:23;;;;;;;0.00;0.00;;;;;;;-0.16;75.85;100424.44;15733972;28;20207;-52
2023/12/05 12:50:00;;;;;;;0.63;0.63;;;;;;;-0.07;75.57;100429.66;15750831;28;20106;-52
2023/12/05 12:57:35;;;;;;;0.00;0.00;;;;;;;-0.28;76.23;100426.44;15748910;28;20059;-49
2023/12/05 13:05:12;;;;;;;1.75;1.25;;;;;;;-0.18;75.48;100424.59;15733851;28;20079;-55
2023/12/05 13:12:47;;;;;;;1.17;1.08;;;;;;;-0.35;76.60;100426.22;15741902;28;20044;-51
2023/12/05 13:56:40;;;;;;;0.45;0.45;;;;;;;-0.35;79.25;100428.84;15743394;28;20071;-54
2023/12/05 14:04:14;;;;;;;1.35;1.25;;;;;;;-0.32;79.33;100423.28;15742531;28;20040;-50
2023/12/05 14:11:50;;;;;;;0.32;0.32;;;;;;;-0.23;79.36;100426.84;15700571;28;20036;-50
2023/12/05 14:19:24;;;;;;;0.13;0.13;;;;;;;-0.36;79.31;100435.09;15740136;28;20054;-54
2023/12/05 14:26:59;;;;;;;1.17;1.08;;;;;;;-0.08;78.80;100432.44;15723155;28;20045;-53
2023/12/05 14:34:32;;;;;;;0.13;0.13;;;;;;;-0.36;79.48;100442.19;15739699;28;20041;-52
2023/12/05 14:42:10;;;;;;;0.00;0.00;;;;;;;-0.30;80.84;100446.84;15740843;28;20072;-56
2023/12/05 14:49:44;;;;;;;0.43;0.40;;;;;;;-0.11;79.98;100446.75;15722738;28;20075;-56
2023/12/05 14:57:18;;;;;;;0.25;0.25;;;;;;;-0.42;81.57;100422.50;15739651;28;20121;-54
2023/12/05 15:04:55;;;;;;;0.32;0.32;;;;;;;-0.57;83.11;100447.69;15739344;28;20047;-51
2023/12/05 15:12:30;;;;;;;1.33;0.57;;;;;;;-0.50;83.37;100458.50;15737616;28;20036;-52
2023/12/05 15:20:07;;;;;;;0.03;0.03;;;;;;;-0.17;82.44;100476.34;15738253;28;20491;-53
2023/12/05 15:27:43;;;;;;;0.20;0.20;;;;;;;-0.41;82.38;100476.91;15739813;28;20047;-54
2023/12/05 15:35:18;;;;;;;0.40;0.40;;;;;;;-0.26;82.68;100480.69;15742279;28;20102;-52
2023/12/05 15:42:53;;;;;;;4.57;0.82;;;;;;;-0.35;82.09;100484.22;15733016;28;20126;-53
2023/12/05 15:50:26;;;;;;;0.10;0.10;;;;;;;0.03;81.56;100479.72;15735385;28;20135;-55
2023/12/05 15:58:01;;;;;;;0.30;0.30;;;;;;;-0.21;82.09;100482.06;15748774;28;20063;-51
2023/12/05 16:05:35;;;;;;;2.85;1.23;;;;;;;-0.28;81.48;100481.81;15751546;28;20041;-55
2023/12/05 16:13:10;;;;;;;;;;;;;;;-0.08;82.12;100485.19;15752739;28;20049;-52
2023/12/05 16:20:43;;;;;;;0.95;0.93;;;;;;;-0.41;83.22;100481.34;15751199;28;19920;-54
2023/12/05 16:28:18;;;;;;;1.00;1.00;;;;;;;-0.30;81.96;100489.06;15719098;28;20049;-55
2023/12/05 16:35:58;;;;;;;0.57;0.57;;;;;;;-0.35;82.62;100488.66;15736919;28;20429;-53
2023/12/05 16:43:33;;;;;;;1.65;1.00;;;;;;;-0.36;83.04;100501.03;15752248;28;20044;-54
2023/12/05 16:51:09;;;;;;;1.10;1.08;;;;;;;-0.22;82.02;100507.63;15707631;28;20359;-51
2023/12/05 16:58:45;;;;;;;0.43;0.43;;;;;;;-0.60;81.84;100438.28;15748524;28;20044;-53
2023/12/05 17:06:19;;;;;;;1.38;1.10;;;;;;;-0.29;81.73;100502.09;15747739;28;20040;-50
2023/12/05 17:13:54;;;;;;;0.63;0.63;;;;;;;-0.44;83.07;100511.47;15747676;28;20053;-51
2023/12/05 17:21:28;;;;;;;0.00;0.00;;;;;;;-0.24;81.97;100506.09;15745534;28;20052;-55
2023/12/05 17:29:03;;;;;;;1.60;1.50;;;;;;;-0.24;81.71;100517.47;15747658;28;20029;-54
2023/12/05 17:36:38;;;;;;;0.80;0.80;;;;;;;-0.37;82.91;100514.38;15745158;28;20132;-55
2023/12/05 17:44:13;;;;;;;0.15;0.15;;;;;;;-0.42;82.98;100506.03;15728316;28;20051;-52
2023/12/05 17:51:47;;;;;;;0.70;0.70;;;;;;;-0.60;83.78;100514.72;15719849;28;20102;-53
2023/12/05 17:59:32;;;;;;;0.98;0.90;;;;;;;-0.34;83.33;100514.06;15744809;28;20043;-49
2023/12/05 18:07:07;;;;;;;1.35;1.17;;;;;;;-0.46;83.24;100523.97;15725480;28;20044;-47
2023/12/05 18:14:46;;;;;;;0.55;0.55;;;;;;;-0.39;83.68;100526.84;15709742;28;20043;-48
2023/12/05 18:22:22;;;;;;;0.98;0.98;;;;;;;-0.48;83.92;100533.81;15707082;28;20045;-48
2023/12/05 18:29:57;;;;;;;1.13;0.70;;;;;;;-0.29;83.10;100531.09;15743006;28;20059;-49
2023/12/05 18:37:31;;;;;;;2.92;1.23;;;;;;;-0.37;83.50;100531.00;15722137;28;20041;-52
2023/12/05 18:45:08;;;;;;;4.45;2.92;;;;;;;-0.40;82.94;100526.00;15729695;28;20480;-49
2023/12/05 18:52:43;;;;;;;0.95;0.65;;;;;;;-0.24;82.32;100538.56;15729453;28;20507;-50
2023/12/05 19:00:19;;;;;;;0.85;0.75;;;;;;;-0.48;83.54;100538.25;15717446;28;20094;-49
2023/12/05 19:07:58;;;;;;;1.52;1.45;;;;;;;-0.06;82.30;100539.47;15716552;28;20094;-49
2023/12/05 19:15:38;;;;;;;0.30;0.30;;;;;;;-0.15;81.75;100542.16;15739772;28;20040;-52
2023/12/05 19:23:12;;;;;;;0.60;0.60;;;;;;;-0.22;82.17;100530.53;15732379;28;20533;-53
2023/12/05 19:30:52;;;;;;;0.65;0.65;;;;;;;-0.04;82.11;100526.16;15703765;28;20376;-50
2023/12/05 19:38:26;;;;;;;0.32;0.32;;;;;;;0.23;81.10;100535.81;15714617;28;20033;-48
2023/12/05 19:46:02;;;;;;;0.57;0.57;;;;;;;0.09;81.27;100533.69;15719732;28;20082;-49
2023/12/05 19:53:36;;;;;;;0.40;0.40;;;;;;;0.27;80.30;100536.38;15750328;28;20422;-48
2023/12/05 20:01:13;;;;;;;0.38;0.38;;;;;;;-0.10;81.49;100543.38;15732660;28;20040;-50
2023/12/05 20:08:47;;;;;;;3.42;0.90;;;;;;;0.16;80.95;100538.25;15713268;28;20044;-51
2023/12/05 20:16:25;;;;;;;1.27;0.52;;;;;;;0.16;81.21;100535.59;15700417;28;20032;-52
2023/12/05 20:23:58;;;;;;;5.30;1.95;;;;;;;0.21;81.09;100538.63;15726579;28;20049;-51
2023/12/05 20:31:35;;;;;;;4.60;0.73;;;;;;;0.02;81.36;100540.56;15737827;28;20060;-51
2023/12/05 20:39:09;;;;;;;1.73;1.65;;;;;;;-0.05;81.76;100541.16;15727818;28;20189;-55
2023/12/05 20:46:44;;;;;;;1.08;0.57;;;;;;;-0.11;80.75;100546.16;15745980;28;20574;-51
2023/12/05 20:54:19;;;;;;;1.13;1.13;;;;;;;0.20;81.00;100550.16;15726010;28;20053;-49
2023/12/05 21:01:53;;;;;;;0.30;0.30;;;;;;;0.25;80.61;100558.47;15742150;28;20080;-53
2023/12/05 21:09:27;;;;;;;4.03;3.70;;;;;;;0.18;80.59;100554.75;15725977;28;20140;-52
2023/12/05 21:17:03;;;;;;;1.48;1.13;;;;;;;0.42;78.94;100564.78;15740374;28;20036;-51
2023/12/05 21:24:38;;;;;;;0.20;0.20;;;;;;;0.16;80.68;100555.88;15735400;28;20107;-50
2023/12/05 21:32:16;;;;;;;2.60;2.40;;;;;;;0.10;80.57;100559.97;15722151;28;20428;-53
2023/12/05 21:39:49;;;;;;;0.45;0.45;;;;;;;0.06;81.03;100563.84;15734782;28;20054;-54
2023/12/05 21:47:24;;;;;;;2.47;2.28;;;;;;;0.25;80.40;100571.66;15739811;28;20044;-47
2023/12/05 21:54:58;;;;;;;2.00;1.85;;;;;;;0.14;80.82;100563.97;15723321;28;20040;-50
2023/12/05 22:02:33;;;;;;;0.28;0.28;;;;;;;0.16;80.56;100569.09;15740431;28;20051;-49
2023/12/05 22:10:08;;;;;;;3.80;1.73;;;;;;;0.32;80.41;100579.00;15721224;28;20040;-52
2023/12/05 22:17:47;;;;;;;2.00;1.75;;;;;;;0.15;81.75;100573.53;15718469;28;20040;-51
2023/12/05 22:25:23;;;;;;;0.25;0.25;;;;;;;0.06;81.62;100571.78;15720466;28;20048;-51
2023/12/05 22:33:00;;;;;;;3.00;2.33;;;;;;;0.29;80.80;100576.66;15721644;28;20131;-48
2023/12/05 22:40:34;;;;;;;0.90;0.90;;;;;;;0.34;80.62;100577.88;15720222;28;20576;-51
2023/12/05 22:48:11;;;;;;;0.15;0.15;;;;;;;0.06;82.66;100573.59;15712785;28;20048;-49
2023/12/05 22:55:44;;;;;;;0.10;0.10;;;;;;;0.21;81.98;100578.22;15719908;28;20041;-54
2023/12/05 23:03:20;;;;;;;0.40;0.40;;;;;;;-0.06;83.65;100576.41;15742502;28;20062;-51
2023/12/05 23:10:57;;;;;;;0.90;0.90;;;;;;;0.23;81.79;100573.63;15740239;28;20455;-53
2023/12/05 23:18:51;;;;;;;0.35;0.35;;;;;;;0.22;81.94;100584.31;15743411;28;20098;-50
2023/12/05 23:26:43;;;;;;;1.20;0.93;;;;;;;0.31;81.97;100579.97;15735987;28;20127;-52
2023/12/05 23:34:18;;;;;;;0.15;0.15;;;;;;;-0.05;82.28;100583.34;15717600;28;20049;-51
2023/12/05 23:41:52;;;;;;;0.65;0.57;;;;;;;0.17;83.07;100579.47;15725889;28;20076;-47
2023/12/05 23:49:26;;;;;;;0.10;0.10;;;;;;;0.04;82.65;100573.72;15747308;22;20041;-47
2023/12/05 23:57:02;;;;;;;0.50;0.32;;;;;;;0.17;82.69;100570.75;15733112;28;20040;-47
